createdAt,value
2022-08-11T00:04:20.911Z,6882.62158
2022-08-11T00:20:14.565Z,10270.72852
2022-08-11T00:35:53.613Z,6981.49609
2022-08-11T00:50:59.920Z,13376.33594
2022-08-11T01:06:02.973Z,2267.52661
2022-08-11T01:21:06.803Z,4938.08545
2022-08-11T01:36:09.039Z,4224.3042
2022-08-11T01:51:15.109Z,1645.08691
2022-08-11T02:06:19.960Z,1266.53796
2022-08-11T02:21:22.311Z,520.74017
2022-08-11T02:36:24.604Z,661.98975
2022-08-11T02:51:26.770Z,249.54094
2022-08-11T03:06:29.007Z,82.86642
2022-08-11T03:22:01.649Z,30.13325
2022-08-11T03:37:17.083Z,3.76666
2022-08-11T03:52:20.527Z,0
2022-08-11T04:07:22.860Z,0
2022-08-11T04:22:25.100Z,0
2022-08-11T04:37:27.327Z,0
2022-08-11T04:52:38.076Z,0
2022-08-11T05:07:40.845Z,0
2022-08-11T05:22:43.513Z,0
2022-08-11T05:37:45.956Z,0
2022-08-11T05:52:55.494Z,0
2022-08-11T06:07:59.912Z,0
2022-08-11T06:23:02.180Z,0
2022-08-11T06:38:04.421Z,0
2022-08-11T06:53:06.618Z,0
2022-08-11T07:08:35.075Z,0
2022-08-11T07:23:37.954Z,0
2022-08-11T07:38:40.136Z,0
2022-08-11T07:54:16.205Z,0
2022-08-11T08:09:19.688Z,0
2022-08-11T08:24:21.923Z,0
2022-08-11T08:39:24.439Z,0
2022-08-11T08:54:26.737Z,0
2022-08-11T09:09:28.924Z,0
2022-08-11T09:24:31.144Z,0
2022-08-11T09:39:33.458Z,0
2022-08-11T09:54:35.761Z,0
2022-08-11T10:09:37.929Z,0
2022-08-11T10:24:40.138Z,0
2022-08-11T10:39:42.440Z,0
2022-08-11T10:54:44.795Z,0
2022-08-11T11:09:46.966Z,0
2022-08-11T11:24:54.951Z,0
2022-08-11T11:39:57.300Z,0
2022-08-11T11:54:59.511Z,0
2022-08-11T12:10:01.796Z,0
2022-08-11T12:25:04.134Z,5.64998
2022-08-11T12:40:16.867Z,22.59993
2022-08-11T12:56:03.652Z,86.63308
2022-08-11T13:11:10.251Z,159.1412
2022-08-11T13:26:12.455Z,306.98245
2022-08-11T13:41:14.656Z,672.34802
2022-08-11T13:56:16.833Z,1624.37024
2022-08-11T14:12:19.792Z,13237.91113
2022-08-11T14:28:32.156Z,5234.70996
2022-08-11T14:44:12.696Z,5515.32568
2022-08-11T14:59:16.706Z,5259.19287
2022-08-11T15:14:18.991Z,5488.01709
2022-08-11T15:29:23.519Z,7552.14453
2022-08-11T15:44:44.566Z,7819.57715
2022-08-11T16:00:03.230Z,8705.68262
2022-08-11T16:15:05.470Z,8231.08398
2022-08-11T16:30:07.647Z,8396.81738
2022-08-11T16:45:09.884Z,8305.47559
2022-08-11T17:00:12.121Z,7968.35986
2022-08-11T17:15:14.345Z,7828.05225
2022-08-11T17:30:16.530Z,7424.07812
2022-08-11T17:45:18.763Z,7070.0127
2022-08-11T18:00:21.214Z,7132.1626
2022-08-11T18:15:23.526Z,7405.24512
2022-08-11T18:30:34.067Z,7327.08691
2022-08-11T18:45:45.549Z,7394.88672
2022-08-11T19:00:48.825Z,7495.64502
2022-08-11T19:15:51.134Z,7478.69482
2022-08-11T19:30:53.469Z,7506.00293
2022-08-11T19:45:55.831Z,7672.67773
2022-08-11T20:00:58.090Z,8024.85986
2022-08-11T20:16:00.320Z,8273.45898
2022-08-11T20:31:02.484Z,8844.10742
2022-08-11T20:46:04.700Z,8769.71582
2022-08-11T21:01:20.231Z,8794.19922
2022-08-11T21:16:27.417Z,8678.375
2022-08-11T21:31:29.902Z,8313.00879
2022-08-11T21:46:33.769Z,9007.01562
2022-08-11T22:01:38.626Z,9399.68945
2022-08-11T22:16:40.894Z,3930.50513
2022-08-11T22:31:43.095Z,2368.28467
2022-08-11T22:46:45.536Z,5457.88428
2022-08-11T23:01:56.191Z,11776.44922
2022-08-11T23:16:59.999Z,11903.57324
2022-08-11T23:32:02.220Z,1876.73621
2022-08-11T23:47:04.616Z,1310.79614
